sensor_id;sensor_type;location;lat;lon;timestamp;pressure;altitude;pressure_sealevel;temperature;humidity
76594;BME280;65482;50.240;14.302;2022-12-11T00:00:38;98736.53;;;0.04;70.42
76594;BME280;65482;50.240;14.302;2022-12-11T00:04:01;98742.41;;;0.06;69.68
76594;BME280;65482;50.240;14.302;2022-12-11T00:06:58;98742.75;;;0.02;69.76
76594;BME280;65482;50.240;14.302;2022-12-11T00:10:11;98745.31;;;0.02;69.89
76594;BME280;65482;50.240;14.302;2022-12-11T00:13:47;98736.38;;;0.06;70.10
76594;BME280;65482;50.240;14.302;2022-12-11T00:17:00;98737.56;;;0.02;69.74
76594;BME280;65482;50.240;14.302;2022-12-11T00:20:08;98733.31;;;0.01;69.27
76594;BME280;65482;50.240;14.302;2022-12-11T00:25:57;98727.03;;;-0.08;69.37
76594;BME280;65482;50.240;14.302;2022-12-11T00:28:50;98725.16;;;-0.06;68.17
76594;BME280;65482;50.240;14.302;2022-12-11T00:35:07;98727.16;;;-0.10;68.73
76594;BME280;65482;50.240;14.302;2022-12-11T00:38:14;98731.38;;;-0.09;68.65
76594;BME280;65482;50.240;14.302;2022-12-11T00:41:27;98732.94;;;-0.06;69.29
76594;BME280;65482;50.240;14.302;2022-12-11T00:44:38;98727.88;;;-0.08;69.15
76594;BME280;65482;50.240;14.302;2022-12-11T00:47:28;98732.22;;;-0.08;69.16
76594;BME280;65482;50.240;14.302;2022-12-11T00:53:44;98746.03;;;-0.08;68.90
76594;BME280;65482;50.240;14.302;2022-12-11T00:56:19;98737.91;;;-0.03;68.69
76594;BME280;65482;50.240;14.302;2022-12-11T00:58:56;98741.22;;;-0.01;68.62
76594;BME280;65482;50.240;14.302;2022-12-11T01:01:56;98742.56;;;-0.08;68.91
76594;BME280;65482;50.240;14.302;2022-12-11T01:04:43;98749.66;;;-0.10;69.09
76594;BME280;65482;50.240;14.302;2022-12-11T01:07:47;98736.38;;;-0.06;68.85
76594;BME280;65482;50.240;14.302;2022-12-11T01:10:31;98753.63;;;-0.17;69.55
76594;BME280;65482;50.240;14.302;2022-12-11T01:13:00;98757.38;;;-0.22;69.10
76594;BME280;65482;50.240;14.302;2022-12-11T01:15:39;98762.06;;;-0.27;69.59
76594;BME280;65482;50.240;14.302;2022-12-11T01:18:06;98759.09;;;-0.33;69.46
76594;BME280;65482;50.240;14.302;2022-12-11T01:20:37;98751.75;;;-0.39;69.91
76594;BME280;65482;50.240;14.302;2022-12-11T01:23:05;98752.69;;;-0.41;69.61
76594;BME280;65482;50.240;14.302;2022-12-11T01:25:34;98750.44;;;-0.45;69.99
76594;BME280;65482;50.240;14.302;2022-12-11T01:28:03;98761.63;;;-0.45;69.75
76594;BME280;65482;50.240;14.302;2022-12-11T01:30:30;98770.44;;;-0.47;69.44
76594;BME280;65482;50.240;14.302;2022-12-11T01:32:58;98767.41;;;-0.41;69.47
76594;BME280;65482;50.240;14.302;2022-12-11T01:35:26;98769.50;;;-0.46;68.69
76594;BME280;65482;50.240;14.302;2022-12-11T01:37:52;98752.59;;;-0.52;68.82
76594;BME280;65482;50.240;14.302;2022-12-11T01:40:20;98762.78;;;-0.49;68.47
76594;BME280;65482;50.240;14.302;2022-12-11T01:42:48;98761.34;;;-0.53;68.38
76594;BME280;65482;50.240;14.302;2022-12-11T01:45:33;98760.94;;;-0.59;68.17
76594;BME280;65482;50.240;14.302;2022-12-11T01:48:13;98759.38;;;-0.62;67.47
76594;BME280;65482;50.240;14.302;2022-12-11T01:50:51;98753.75;;;-0.56;67.65
76594;BME280;65482;50.240;14.302;2022-12-11T01:53:34;98753.47;;;-0.64;67.46
76594;BME280;65482;50.240;14.302;2022-12-11T01:56:03;98759.19;;;-0.72;67.70
76594;BME280;65482;50.240;14.302;2022-12-11T01:58:52;98765.22;;;-0.71;67.33
76594;BME280;65482;50.240;14.302;2022-12-11T02:01:38;98758.38;;;-0.72;67.71
76594;BME280;65482;50.240;14.302;2022-12-11T02:04:06;98748.84;;;-0.72;67.24
76594;BME280;65482;50.240;14.302;2022-12-11T02:06:41;98747.72;;;-0.81;67.52
76594;BME280;65482;50.240;14.302;2022-12-11T02:09:15;98750.00;;;-0.76;67.19
76594;BME280;65482;50.240;14.302;2022-12-11T02:12:19;98756.59;;;-0.72;67.16
76594;BME280;65482;50.240;14.302;2022-12-11T02:15:11;98757.03;;;-0.65;66.85
76594;BME280;65482;50.240;14.302;2022-12-11T02:20:47;98743.03;;;-0.63;67.20
76594;BME280;65482;50.240;14.302;2022-12-11T02:26:27;98737.31;;;-0.55;67.02
76594;BME280;65482;50.240;14.302;2022-12-11T02:28:58;98739.72;;;-0.65;66.53
76594;BME280;65482;50.240;14.302;2022-12-11T02:34:45;98737.75;;;-0.61;66.17
76594;BME280;65482;50.240;14.302;2022-12-11T02:37:20;98738.66;;;-0.62;66.12
76594;BME280;65482;50.240;14.302;2022-12-11T02:39:48;98739.38;;;-0.60;66.17
76594;BME280;65482;50.240;14.302;2022-12-11T02:42:17;98741.47;;;-0.65;66.25
76594;BME280;65482;50.240;14.302;2022-12-11T02:44:45;98739.38;;;-0.60;66.68
76594;BME280;65482;50.240;14.302;2022-12-11T02:47:32;98735.88;;;-0.72;66.27
76594;BME280;65482;50.240;14.302;2022-12-11T02:50:10;98735.88;;;-0.72;66.53
76594;BME280;65482;50.240;14.302;2022-12-11T02:52:39;98739.91;;;-0.68;66.54
76594;BME280;65482;50.240;14.302;2022-12-11T02:56:10;98737.75;;;-0.74;66.80
76594;BME280;65482;50.240;14.302;2022-12-11T02:58:51;98738.72;;;-0.75;66.72
76594;BME280;65482;50.240;14.302;2022-12-11T03:01:27;98739.34;;;-0.71;66.94
76594;BME280;65482;50.240;14.302;2022-12-11T03:03:54;98740.03;;;-0.69;67.06
76594;BME280;65482;50.240;14.302;2022-12-11T03:06:31;98740.88;;;-0.69;66.68
76594;BME280;65482;50.240;14.302;2022-12-11T03:09:01;98730.00;;;-0.74;66.87
76594;BME280;65482;50.240;14.302;2022-12-11T03:11:30;98739.81;;;-0.66;67.28
76594;BME280;65482;50.240;14.302;2022-12-11T03:13:55;98738.06;;;-0.66;67.12
76594;BME280;65482;50.240;14.302;2022-12-11T03:16:32;98737.31;;;-0.68;67.12
76594;BME280;65482;50.240;14.302;2022-12-11T03:22:40;98738.91;;;-0.65;67.27
76594;BME280;65482;50.240;14.302;2022-12-11T03:25:21;98744.56;;;-0.60;66.98
76594;BME280;65482;50.240;14.302;2022-12-11T03:27:58;98755.06;;;-0.62;67.04
76594;BME280;65482;50.240;14.302;2022-12-11T03:30:30;98749.75;;;-0.60;66.98
76594;BME280;65482;50.240;14.302;2022-12-11T03:36:10;98752.03;;;-0.55;67.89
76594;BME280;65482;50.240;14.302;2022-12-11T03:38:59;98755.44;;;-0.55;67.56
76594;BME280;65482;50.240;14.302;2022-12-11T03:41:26;98754.34;;;-0.64;67.68
76594;BME280;65482;50.240;14.302;2022-12-11T03:43:56;98761.97;;;-0.62;67.37
76594;BME280;65482;50.240;14.302;2022-12-11T03:46:26;98763.41;;;-0.58;67.18
76594;BME280;65482;50.240;14.302;2022-12-11T03:48:58;98764.03;;;-0.54;66.92
76594;BME280;65482;50.240;14.302;2022-12-11T03:51:25;98770.03;;;-0.54;67.59
76594;BME280;65482;50.240;14.302;2022-12-11T03:53:52;98765.38;;;-0.49;67.23
76594;BME280;65482;50.240;14.302;2022-12-11T03:56:18;98767.13;;;-0.49;67.28
76594;BME280;65482;50.240;14.302;2022-12-11T03:58:46;98766.91;;;-0.46;66.83
76594;BME280;65482;50.240;14.302;2022-12-11T04:01:13;98766.41;;;-0.51;67.40
76594;BME280;65482;50.240;14.302;2022-12-11T04:03:41;98757.69;;;-0.50;67.47
76594;BME280;65482;50.240;14.302;2022-12-11T04:06:09;98759.03;;;-0.45;67.58
76594;BME280;65482;50.240;14.302;2022-12-11T04:08:42;98767.75;;;-0.46;67.29
76594;BME280;65482;50.240;14.302;2022-12-11T04:11:11;98767.19;;;-0.38;67.47
76594;BME280;65482;50.240;14.302;2022-12-11T04:17:21;98761.63;;;-0.45;67.30
76594;BME280;65482;50.240;14.302;2022-12-11T04:20:16;98765.75;;;-0.42;66.99
76594;BME280;65482;50.240;14.302;2022-12-11T04:23:19;98758.41;;;-0.48;66.56
76594;BME280;65482;50.240;14.302;2022-12-11T04:26:19;98760.28;;;-0.50;66.76
76594;BME280;65482;50.240;14.302;2022-12-11T04:28:47;98761.44;;;-0.54;66.43
76594;BME280;65482;50.240;14.302;2022-12-11T04:31:17;98759.09;;;-0.57;66.66
76594;BME280;65482;50.240;14.302;2022-12-11T04:33:44;98764.66;;;-0.51;66.65
76594;BME280;65482;50.240;14.302;2022-12-11T04:36:25;98762.16;;;-0.52;66.51
76594;BME280;65482;50.240;14.302;2022-12-11T04:39:00;98759.34;;;-0.49;66.27
76594;BME280;65482;50.240;14.302;2022-12-11T04:44:34;98759.34;;;-0.49;66.73
76594;BME280;65482;50.240;14.302;2022-12-11T04:47:35;98758.75;;;-0.53;66.98
76594;BME280;65482;50.240;14.302;2022-12-11T04:50:32;98749.19;;;-0.52;66.61
76594;BME280;65482;50.240;14.302;2022-12-11T04:52:59;98741.53;;;-0.54;66.21
76594;BME280;65482;50.240;14.302;2022-12-11T04:55:47;98744.84;;;-0.52;66.11
76594;BME280;65482;50.240;14.302;2022-12-11T04:58:14;98738.53;;;-0.48;66.42
76594;BME280;65482;50.240;14.302;2022-12-11T05:00:40;98739.44;;;-0.49;66.30
76594;BME280;65482;50.240;14.302;2022-12-11T05:03:10;98731.78;;;-0.50;66.85
76594;BME280;65482;50.240;14.302;2022-12-11T05:05:36;98735.31;;;-0.51;66.78
76594;BME280;65482;50.240;14.302;2022-12-11T05:08:03;98730.97;;;-0.51;66.50
76594;BME280;65482;50.240;14.302;2022-12-11T05:10:30;98737.91;;;-0.51;66.45
76594;BME280;65482;50.240;14.302;2022-12-11T05:12:56;98739.78;;;-0.53;66.02
76594;BME280;65482;50.240;14.302;2022-12-11T05:15:22;98739.28;;;-0.58;66.08
76594;BME280;65482;50.240;14.302;2022-12-11T05:17:54;98740.22;;;-0.59;65.68
76594;BME280;65482;50.240;14.302;2022-12-11T05:20:40;98729.56;;;-0.68;65.56
76594;BME280;65482;50.240;14.302;2022-12-11T05:23:08;98736.41;;;-0.67;65.98
76594;BME280;65482;50.240;14.302;2022-12-11T05:25:34;98729.69;;;-0.69;65.89
76594;BME280;65482;50.240;14.302;2022-12-11T05:28:02;98727.91;;;-0.69;65.89
76594;BME280;65482;50.240;14.302;2022-12-11T05:30:31;98728.84;;;-0.70;65.61
76594;BME280;65482;50.240;14.302;2022-12-11T05:32:59;98737.16;;;-0.77;65.25
76594;BME280;65482;50.240;14.302;2022-12-11T05:35:25;98729.16;;;-0.74;65.03
76594;BME280;65482;50.240;14.302;2022-12-11T05:37:56;98726.19;;;-0.81;65.40
76594;BME280;65482;50.240;14.302;2022-12-11T05:40:24;98719.34;;;-0.82;65.18
76594;BME280;65482;50.240;14.302;2022-12-11T05:42:51;98719.25;;;-0.81;65.64
76594;BME280;65482;50.240;14.302;2022-12-11T05:45:42;98725.16;;;-0.78;65.85
76594;BME280;65482;50.240;14.302;2022-12-11T05:48:24;98729.22;;;-0.87;65.79
76594;BME280;65482;50.240;14.302;2022-12-11T05:50:58;98727.47;;;-1.00;66.01
76594;BME280;65482;50.240;14.302;2022-12-11T05:53:30;98717.63;;;-0.94;66.00
76594;BME280;65482;50.240;14.302;2022-12-11T05:56:01;98718.66;;;-0.97;65.88
76594;BME280;65482;50.240;14.302;2022-12-11T05:58:28;98721.56;;;-1.02;66.33
76594;BME280;65482;50.240;14.302;2022-12-11T06:01:06;98717.03;;;-1.11;66.50
76594;BME280;65482;50.240;14.302;2022-12-11T06:04:01;98729.88;;;-1.09;66.17
76594;BME280;65482;50.240;14.302;2022-12-11T06:07:10;98724.38;;;-1.17;66.27
76594;BME280;65482;50.240;14.302;2022-12-11T06:09:42;98722.34;;;-1.25;66.93
76594;BME280;65482;50.240;14.302;2022-12-11T06:12:14;98727.63;;;-1.27;66.68
76594;BME280;65482;50.240;14.302;2022-12-11T06:15:08;98730.41;;;-1.30;66.45
76594;BME280;65482;50.240;14.302;2022-12-11T06:17:50;98725.88;;;-1.39;67.11
76594;BME280;65482;50.240;14.302;2022-12-11T06:20:25;98726.59;;;-1.37;67.29
76594;BME280;65482;50.240;14.302;2022-12-11T06:23:28;98740.44;;;-1.38;67.71
76594;BME280;65482;50.240;14.302;2022-12-11T06:26:33;98745.63;;;-1.38;67.06
76594;BME280;65482;50.240;14.302;2022-12-11T06:30:06;98750.69;;;-1.36;67.31
76594;BME280;65482;50.240;14.302;2022-12-11T06:32:52;98756.50;;;-1.33;66.92
76594;BME280;65482;50.240;14.302;2022-12-11T06:35:38;98759.09;;;-1.33;67.47
76594;BME280;65482;50.240;14.302;2022-12-11T06:38:50;98765.47;;;-1.26;67.44
76594;BME280;65482;50.240;14.302;2022-12-11T06:41:47;98773.69;;;-1.19;66.92
76594;BME280;65482;50.240;14.302;2022-12-11T06:44:20;98765.28;;;-1.10;66.33
76594;BME280;65482;50.240;14.302;2022-12-11T06:47:22;98775.03;;;-1.13;66.41
76594;BME280;65482;50.240;14.302;2022-12-11T06:50:06;98775.63;;;-1.10;66.43
76594;BME280;65482;50.240;14.302;2022-12-11T06:52:37;98772.03;;;-1.07;66.42
76594;BME280;65482;50.240;14.302;2022-12-11T06:55:05;98774.47;;;-1.06;66.41
76594;BME280;65482;50.240;14.302;2022-12-11T07:00:38;98778.59;;;-0.90;66.37
76594;BME280;65482;50.240;14.302;2022-12-11T07:04:00;98767.19;;;-0.88;66.23
76594;BME280;65482;50.240;14.302;2022-12-11T07:06:37;98770.41;;;-0.84;66.12
76594;BME280;65482;50.240;14.302;2022-12-11T07:09:18;98783.88;;;-0.79;65.57
76594;BME280;65482;50.240;14.302;2022-12-11T07:12:13;98771.38;;;-0.85;65.59
76594;BME280;65482;50.240;14.302;2022-12-11T07:14:48;98772.28;;;-0.86;65.53
76594;BME280;65482;50.240;14.302;2022-12-11T07:17:27;98783.78;;;-0.90;65.88
76594;BME280;65482;50.240;14.302;2022-12-11T07:20:09;98781.31;;;-0.92;65.89
76594;BME280;65482;50.240;14.302;2022-12-11T07:22:53;98782.16;;;-0.91;65.03
76594;BME280;65482;50.240;14.302;2022-12-11T07:28:47;98793.22;;;-0.89;65.27
76594;BME280;65482;50.240;14.302;2022-12-11T07:35:21;98778.72;;;-0.92;65.67
76594;BME280;65482;50.240;14.302;2022-12-11T07:38:49;98784.59;;;-0.90;65.11
76594;BME280;65482;50.240;14.302;2022-12-11T07:42:08;98793.53;;;-0.94;65.78
76594;BME280;65482;50.240;14.302;2022-12-11T07:44:54;98792.81;;;-0.96;65.83
76594;BME280;65482;50.240;14.302;2022-12-11T07:48:03;98792.50;;;-1.04;65.97
76594;BME280;65482;50.240;14.302;2022-12-11T07:52:07;98796.13;;;-1.07;65.79
76594;BME280;65482;50.240;14.302;2022-12-11T07:54:35;98798.31;;;-1.13;65.67
76594;BME280;65482;50.240;14.302;2022-12-11T07:57:17;98795.72;;;-1.13;66.04
76594;BME280;65482;50.240;14.302;2022-12-11T08:00:04;98791.38;;;-1.13;65.99
76594;BME280;65482;50.240;14.302;2022-12-11T08:03:06;98796.47;;;-1.11;66.11
76594;BME280;65482;50.240;14.302;2022-12-11T08:10:05;98798.31;;;-1.01;65.38
76594;BME280;65482;50.240;14.302;2022-12-11T08:12:39;98800.56;;;-0.96;65.40
76594;BME280;65482;50.240;14.302;2022-12-11T08:15:40;98804.19;;;-0.86;65.49
76594;BME280;65482;50.240;14.302;2022-12-11T08:18:57;98799.94;;;-0.87;65.54
76594;BME280;65482;50.240;14.302;2022-12-11T08:22:30;98803.59;;;-0.89;64.23
76594;BME280;65482;50.240;14.302;2022-12-11T08:25:53;98800.47;;;-0.94;65.00
76594;BME280;65482;50.240;14.302;2022-12-11T08:28:53;98801.00;;;-0.89;64.97
76594;BME280;65482;50.240;14.302;2022-12-11T08:31:37;98796.13;;;-0.81;65.25
76594;BME280;65482;50.240;14.302;2022-12-11T08:34:03;98794.25;;;-0.79;64.94
76594;BME280;65482;50.240;14.302;2022-12-11T08:36:29;98786.38;;;-0.77;64.30
76594;BME280;65482;50.240;14.302;2022-12-11T08:38:56;98788.63;;;-0.73;64.22
76594;BME280;65482;50.240;14.302;2022-12-11T08:41:31;98790.91;;;-0.68;64.28
76594;BME280;65482;50.240;14.302;2022-12-11T08:44:12;98792.47;;;-0.66;64.00
76594;BME280;65482;50.240;14.302;2022-12-11T08:46:39;98797.94;;;-0.57;63.87
76594;BME280;65482;50.240;14.302;2022-12-11T08:49:05;98789.13;;;-0.55;63.67
76594;BME280;65482;50.240;14.302;2022-12-11T08:51:32;98797.59;;;-0.53;63.54
76594;BME280;65482;50.240;14.302;2022-12-11T08:53:59;98796.72;;;-0.41;63.15
76594;BME280;65482;50.240;14.302;2022-12-11T08:56:29;98800.75;;;-0.36;62.74
76594;BME280;65482;50.240;14.302;2022-12-11T08:58:55;98793.00;;;-0.36;61.93
76594;BME280;65482;50.240;14.302;2022-12-11T09:01:27;98802.72;;;-0.40;60.49
76594;BME280;65482;50.240;14.302;2022-12-11T09:03:55;98800.59;;;-0.46;60.73
76594;BME280;65482;50.240;14.302;2022-12-11T09:10:15;98806.53;;;-0.70;59.58
76594;BME280;65482;50.240;14.302;2022-12-11T09:13:43;98803.66;;;-0.65;59.14
76594;BME280;65482;50.240;14.302;2022-12-11T09:20:01;98796.53;;;-0.37;57.63
76594;BME280;65482;50.240;14.302;2022-12-11T09:22:45;98785.28;;;-0.25;58.00
76594;BME280;65482;50.240;14.302;2022-12-11T09:25:58;98801.84;;;-0.15;57.81
76594;BME280;65482;50.240;14.302;2022-12-11T09:32:10;98796.91;;;-0.07;57.46
76594;BME280;65482;50.240;14.302;2022-12-11T09:35:27;98799.41;;;-0.05;56.16
76594;BME280;65482;50.240;14.302;2022-12-11T09:38:23;98804.34;;;-0.02;55.52
76594;BME280;65482;50.240;14.302;2022-12-11T09:41:37;98797.63;;;-0.29;56.14
76594;BME280;65482;50.240;14.302;2022-12-11T09:48:05;98794.66;;;-0.11;56.21
76594;BME280;65482;50.240;14.302;2022-12-11T09:50:54;98782.59;;;0.01;56.84
76594;BME280;65482;50.240;14.302;2022-12-11T09:53:33;98781.91;;;0.10;56.43
76594;BME280;65482;50.240;14.302;2022-12-11T09:56:21;98774.97;;;0.10;56.05
76594;BME280;65482;50.240;14.302;2022-12-11T10:09:21;98758.00;;;0.64;55.24
76594;BME280;65482;50.240;14.302;2022-12-11T10:12:45;98755.88;;;0.69;55.01
76594;BME280;65482;50.240;14.302;2022-12-11T10:18:12;98765.41;;;0.57;54.76
76594;BME280;65482;50.240;14.302;2022-12-11T10:20:41;98765.28;;;0.59;54.69
76594;BME280;65482;50.240;14.302;2022-12-11T10:23:15;98769.66;;;0.58;54.04
76594;BME280;65482;50.240;14.302;2022-12-11T10:25:49;98770.25;;;0.51;54.17
76594;BME280;65482;50.240;14.302;2022-12-11T10:28:18;98764.09;;;0.41;55.14
76594;BME280;65482;50.240;14.302;2022-12-11T10:31:17;98760.78;;;0.38;54.75
76594;BME280;65482;50.240;14.302;2022-12-11T10:34:02;98758.41;;;0.35;54.79
76594;BME280;65482;50.240;14.302;2022-12-11T10:36:41;98767.03;;;0.47;54.72
76594;BME280;65482;50.240;14.302;2022-12-11T10:39:13;98765.63;;;0.43;54.76
76594;BME280;65482;50.240;14.302;2022-12-11T10:41:59;98762.00;;;0.57;54.77
76594;BME280;65482;50.240;14.302;2022-12-11T10:44:30;98769.19;;;0.65;54.28
76594;BME280;65482;50.240;14.302;2022-12-11T10:49:31;98757.44;;;0.72;53.78
76594;BME280;65482;50.240;14.302;2022-12-11T10:52:43;98749.28;;;0.76;53.40
76594;BME280;65482;50.240;14.302;2022-12-11T10:55:28;98745.72;;;0.77;53.02
76594;BME280;65482;50.240;14.302;2022-12-11T10:58:04;98748.69;;;0.84;52.91
76594;BME280;65482;50.240;14.302;2022-12-11T11:00:37;98743.84;;;0.91;52.67
76594;BME280;65482;50.240;14.302;2022-12-11T11:03:26;98738.53;;;0.92;52.91
76594;BME280;65482;50.240;14.302;2022-12-11T11:06:18;98737.38;;;0.96;53.05
76594;BME280;65482;50.240;14.302;2022-12-11T11:09:00;98733.09;;;0.95;52.87
76594;BME280;65482;50.240;14.302;2022-12-11T11:11:36;98731.31;;;1.07;52.75
76594;BME280;65482;50.240;14.302;2022-12-11T11:14:33;98730.28;;;1.10;53.17
76594;BME280;65482;50.240;14.302;2022-12-11T11:17:25;98723.88;;;1.25;54.20
76594;BME280;65482;50.240;14.302;2022-12-11T11:19:54;98716.44;;;1.21;54.66
76594;BME280;65482;50.240;14.302;2022-12-11T11:22:22;98722.13;;;1.14;54.88
76594;BME280;65482;50.240;14.302;2022-12-11T11:25:22;98726.84;;;1.09;55.15
76594;BME280;65482;50.240;14.302;2022-12-11T11:28:35;98717.53;;;0.95;55.76
76594;BME280;65482;50.240;14.302;2022-12-11T11:31:36;98719.91;;;0.76;55.56
76594;BME280;65482;50.240;14.302;2022-12-11T11:34:27;98725.22;;;0.74;55.85
76594;BME280;65482;50.240;14.302;2022-12-11T11:41:38;98722.25;;;0.79;57.18
76594;BME280;65482;50.240;14.302;2022-12-11T11:52:33;98727.34;;;0.11;60.23
76594;BME280;65482;50.240;14.302;2022-12-11T12:01:55;98718.53;;;0.25;58.82
76594;BME280;65482;50.240;14.302;2022-12-11T12:11:36;98709.50;;;0.65;56.46
76594;BME280;65482;50.240;14.302;2022-12-11T12:18:35;98706.75;;;0.44;55.87
76594;BME280;65482;50.240;14.302;2022-12-11T12:21:50;98701.91;;;0.28;55.54
76594;BME280;65482;50.240;14.302;2022-12-11T12:28:26;98689.19;;;-0.11;54.27
76594;BME280;65482;50.240;14.302;2022-12-11T12:48:09;98674.00;;;-0.88;56.44
76594;BME280;65482;50.240;14.302;2022-12-11T12:54:25;98671.00;;;-0.82;54.57
76594;BME280;65482;50.240;14.302;2022-12-11T12:58:21;98658.31;;;-0.73;55.13
76594;BME280;65482;50.240;14.302;2022-12-11T13:04:53;98652.59;;;-0.30;53.36
76594;BME280;65482;50.240;14.302;2022-12-11T13:14:42;98665.97;;;-0.12;51.09
76594;BME280;65482;50.240;14.302;2022-12-11T13:17:54;98666.66;;;-0.22;50.68
76594;BME280;65482;50.240;14.302;2022-12-11T13:27:45;98675.66;;;-0.38;49.70
76594;BME280;65482;50.240;14.302;2022-12-11T13:34:01;98681.19;;;-0.43;50.09
76594;BME280;65482;50.240;14.302;2022-12-11T13:36:57;98675.94;;;-0.54;50.88
76594;BME280;65482;50.240;14.302;2022-12-11T13:39:52;98674.44;;;-0.70;51.27
76594;BME280;65482;50.240;14.302;2022-12-11T13:43:28;98676.81;;;-0.91;51.39
76594;BME280;65482;50.240;14.302;2022-12-11T13:50:33;98683.97;;;-1.31;52.67
76594;BME280;65482;50.240;14.302;2022-12-11T13:53:04;98683.13;;;-1.45;53.57
76594;BME280;65482;50.240;14.302;2022-12-11T13:59:40;98679.63;;;-1.56;55.13
76594;BME280;65482;50.240;14.302;2022-12-11T14:02:55;98679.94;;;-1.61;54.72
76594;BME280;65482;50.240;14.302;2022-12-11T14:06:12;98683.34;;;-1.48;54.77
76594;BME280;65482;50.240;14.302;2022-12-11T14:09:55;98685.81;;;-1.46;54.63
76594;BME280;65482;50.240;14.302;2022-12-11T14:12:56;98695.03;;;-1.42;54.37
76594;BME280;65482;50.240;14.302;2022-12-11T14:35:03;98699.25;;;-1.28;53.39
76594;BME280;65482;50.240;14.302;2022-12-11T14:38:08;98701.13;;;-1.30;53.71
76594;BME280;65482;50.240;14.302;2022-12-11T14:45:07;98698.34;;;-1.40;54.40
76594;BME280;65482;50.240;14.302;2022-12-11T14:53:12;98710.03;;;-1.60;55.22
76594;BME280;65482;50.240;14.302;2022-12-11T14:56:02;98707.56;;;-1.74;55.00
76594;BME280;65482;50.240;14.302;2022-12-11T15:06:42;98709.50;;;-1.91;55.68
76594;BME280;65482;50.240;14.302;2022-12-11T15:14:09;98713.31;;;-1.96;56.94
76594;BME280;65482;50.240;14.302;2022-12-11T15:17:19;98708.97;;;-1.96;56.44
76594;BME280;65482;50.240;14.302;2022-12-11T15:20:36;98707.31;;;-1.97;56.63
76594;BME280;65482;50.240;14.302;2022-12-11T15:30:57;98706.47;;;-1.97;57.09
76594;BME280;65482;50.240;14.302;2022-12-11T15:33:53;98707.59;;;-2.02;56.96
76594;BME280;65482;50.240;14.302;2022-12-11T15:40:38;98700.38;;;-1.96;57.87
76594;BME280;65482;50.240;14.302;2022-12-11T15:43:54;98693.78;;;-1.88;58.42
76594;BME280;65482;50.240;14.302;2022-12-11T15:46:51;98700.94;;;-1.78;58.33
76594;BME280;65482;50.240;14.302;2022-12-11T15:55:31;98711.56;;;-1.57;57.75
76594;BME280;65482;50.240;14.302;2022-12-11T15:58:06;98706.31;;;-1.56;58.41
76594;BME280;65482;50.240;14.302;2022-12-11T16:01:09;98714.78;;;-1.54;58.19
76594;BME280;65482;50.240;14.302;2022-12-11T16:03:38;98709.94;;;-1.58;58.72
76594;BME280;65482;50.240;14.302;2022-12-11T16:06:05;98712.53;;;-1.58;58.54
76594;BME280;65482;50.240;14.302;2022-12-11T16:08:31;98707.53;;;-1.62;59.26
76594;BME280;65482;50.240;14.302;2022-12-11T16:10:57;98705.69;;;-1.60;58.79
76594;BME280;65482;50.240;14.302;2022-12-11T16:13:24;98709.94;;;-1.58;59.47
76594;BME280;65482;50.240;14.302;2022-12-11T16:15:50;98714.28;;;-1.59;59.45
76594;BME280;65482;50.240;14.302;2022-12-11T16:18:23;98712.09;;;-1.52;59.16
76594;BME280;65482;50.240;14.302;2022-12-11T16:21:15;98715.59;;;-1.53;58.65
76594;BME280;65482;50.240;14.302;2022-12-11T16:24:21;98720.91;;;-1.55;58.33
76594;BME280;65482;50.240;14.302;2022-12-11T16:27:06;98719.03;;;-1.53;58.52
76594;BME280;65482;50.240;14.302;2022-12-11T16:30:03;98714.47;;;-1.62;58.56
76594;BME280;65482;50.240;14.302;2022-12-11T16:33:10;98725.44;;;-1.58;58.86
76594;BME280;65482;50.240;14.302;2022-12-11T16:36:14;98718.50;;;-1.58;58.34
76594;BME280;65482;50.240;14.302;2022-12-11T16:38:49;98721.91;;;-1.57;59.02
76594;BME280;65482;50.240;14.302;2022-12-11T16:41:45;98715.19;;;-1.60;58.76
76594;BME280;65482;50.240;14.302;2022-12-11T16:45:11;98718.28;;;-1.68;58.67
76594;BME280;65482;50.240;14.302;2022-12-11T16:48:42;98719.03;;;-1.66;58.93
76594;BME280;65482;50.240;14.302;2022-12-11T16:52:06;98723.78;;;-1.72;59.63
76594;BME280;65482;50.240;14.302;2022-12-11T16:54:48;98719.75;;;-1.76;59.98
76594;BME280;65482;50.240;14.302;2022-12-11T16:57:15;98715.72;;;-1.81;60.03
76594;BME280;65482;50.240;14.302;2022-12-11T16:59:50;98718.22;;;-1.79;59.41
76594;BME280;65482;50.240;14.302;2022-12-11T17:02:29;98718.41;;;-1.82;59.28
76594;BME280;65482;50.240;14.302;2022-12-11T17:04:55;98715.41;;;-1.89;59.69
76594;BME280;65482;50.240;14.302;2022-12-11T17:07:32;98719.41;;;-1.97;59.50
76594;BME280;65482;50.240;14.302;2022-12-11T17:10:11;98707.50;;;-2.00;58.65
76594;BME280;65482;50.240;14.302;2022-12-11T17:16:39;98720.75;;;-2.05;58.64
76594;BME280;65482;50.240;14.302;2022-12-11T17:19:31;98716.41;;;-2.04;58.99
76594;BME280;65482;50.240;14.302;2022-12-11T17:22:01;98714.84;;;-2.07;58.40
76594;BME280;65482;50.240;14.302;2022-12-11T17:24:43;98716.06;;;-2.12;57.75
76594;BME280;65482;50.240;14.302;2022-12-11T17:27:31;98717.84;;;-2.00;57.39
76594;BME280;65482;50.240;14.302;2022-12-11T17:29:57;98715.91;;;-1.96;57.48
76594;BME280;65482;50.240;14.302;2022-12-11T17:32:27;98718.66;;;-2.00;57.59
76594;BME280;65482;50.240;14.302;2022-12-11T17:34:55;98720.03;;;-1.94;57.24
76594;BME280;65482;50.240;14.302;2022-12-11T17:37:21;98719.41;;;-1.97;57.52
76594;BME280;65482;50.240;14.302;2022-12-11T17:39:48;98720.97;;;-1.95;57.94
76594;BME280;65482;50.240;14.302;2022-12-11T17:42:13;98726.03;;;-1.93;57.29
76594;BME280;65482;50.240;14.302;2022-12-11T17:44:40;98713.63;;;-1.88;57.33
76594;BME280;65482;50.240;14.302;2022-12-11T17:47:07;98724.38;;;-1.94;56.98
76594;BME280;65482;50.240;14.302;2022-12-11T17:49:38;98726.03;;;-1.93;56.98
76594;BME280;65482;50.240;14.302;2022-12-11T17:52:05;98723.88;;;-1.87;57.36
76594;BME280;65482;50.240;14.302;2022-12-11T17:54:33;98727.47;;;-1.89;56.44
76594;BME280;65482;50.240;14.302;2022-12-11T17:57:00;98723.56;;;-1.95;56.12
76594;BME280;65482;50.240;14.302;2022-12-11T17:59:31;98720.25;;;-1.97;56.77
76594;BME280;65482;50.240;14.302;2022-12-11T18:01:58;98713.09;;;-1.93;56.50
76594;BME280;65482;50.240;14.302;2022-12-11T18:04:27;98715.09;;;-1.97;56.73